Data for 06/08/2006

Time Sea-Level Adjusted Pressure Absolute Pressure Temperature Relative Humidity Dew Point   
(mb) (inHg) (mb) (inHg) (C) (F) (%) (C) (F)
00:05 1017 30.03 846 24.98 16.6 61.8 78 12.8 55.1
00:10 1017 30.03 846 24.98 16.6 61.8 78 12.8 55.1
00:15 1017 30.03 846 24.98 16.4 61.6 80 12.9 55.3
00:20 1017 30.03 846 24.98 16.3 61.3 80 12.9 55.1
00:25 1017 30.03 846 24.98 16.3 61.3 80 12.8 55.1
00:30 1016 30 846 24.98 16.2 61.2 79 12.6 54.7
00:35 1016 30 845 24.95 16.3 61.4 79 12.7 54.8
00:40 1016 30 845 24.95 16.1 61.1 80 12.8 55
00:45 1016 30 846 24.98 15.8 60.4 83 12.9 55.2
00:50 1017 30.03 846 24.98 15 59 85 12.6 54.7
00:55 1017 30.03 846 24.98 14.9 58.7 85 12.4 54.3
01:00 1017 30.03 846 24.98 14.8 58.7 85 12.4 54.3
01:05 1017 30.03 846 24.98 15.3 59.5 82 12.3 54.1
01:10 1017 30.03 847 25.01 15.4 59.7 83 12.5 54.4
01:15 1018 30.06 847 25.01 15 58.9 84 12.3 54.1
01:20 1018 30.06 847 25.01 15 59.1 84 12.4 54.3
01:25 1018 30.06 847 25.01 15 58.9 85 12.4 54.4
01:30 1018 30.06 847 25.01 15 58.9 84 12.3 54.1
01:35 1018 30.06 847 25.01 15.1 59.2 84 12.5 54.5
01:40 1018 30.06 847 25.01 15.1 59.2 85 12.6 54.7
01:45 1018 30.06 847 25.01 14.9 58.8 85 12.5 54.5
01:50 1018 30.06 847 25.01 14.9 58.9 86 12.7 54.8
01:55 1018 30.06 847 25.01 14.9 58.8 86 12.6 54.8
02:00 1018 30.06 847 25.01 14.7 58.5 87 12.6 54.6
02:05 1018 30.06 847 25.01 14.4 57.9 88 12.4 54.3
02:10 1018 30.06 847 25.01 14.4 58 87 12.4 54.3
02:15 1018 30.06 847 25.01 14.5 58.2 87 12.4 54.3
02:20 1018 30.06 847 25.01 14.6 58.2 89 12.7 54.9
02:25 1017 30.03 847 25.01 14.4 57.9 90 12.8 55
02:30 1017 30.03 846 24.98 14.2 57.6 91 12.8 55
02:35 1017 30.03 846 24.98 13.9 57.1 92 12.7 54.8
02:40 1017 30.03 846 24.98 13.8 56.8 93 12.7 54.8
02:45 1017 30.03 846 24.98 13.7 56.7 93 12.6 54.7
02:50 1017 30.03 846 24.98 13.7 56.7 93 12.6 54.7
02:55 1017 30.03 846 24.98 13.7 56.6 93 12.5 54.6
03:00 1017 30.03 846 24.98 13.6 56.5 93 12.5 54.6
03:05 1017 30.03 846 24.98 13.6 56.5 93 12.5 54.6
03:10 1017 30.03 846 24.98 13.5 56.3 94 12.6 54.6
03:15 1017 30.03 846 24.98 13.5 56.3 94 12.6 54.7
03:20 1017 30.03 846 24.98 13.5 56.3 94 12.6 54.7
03:25 1017 30.03 846 24.98 13.6 56.4 94 12.6 54.7
03:30 1017 30.03 846 24.98 13.6 56.6 93 12.5 54.6
03:35 1017 30.03 846 24.98 13.6 56.5 93 12.5 54.5
03:40 1017 30.03 846 24.98 13.6 56.4 93 12.5 54.4
03:45 1017 30.03 846 24.98 13.5 56.3 92 12.2 54
03:50 1017 30.03 846 24.98 13.3 56 92 12 53.6
03:55 1017 30.03 846 24.98 13.2 55.7 93 12.1 53.7
04:00 1017 30.03 846 24.98 13.1 55.5 93 12 53.6
04:05 1017 30.03 846 24.98 13.1 55.6 92 11.9 53.5
04:10 1017 30.03 846 24.98 13 55.5 93 11.9 53.4
04:15 1017 30.03 846 24.98 12.9 55.1 93 11.7 53.1
04:20 1017 30.03 846 24.98 12.7 54.9 94 11.8 53.2
04:25 1017 30.03 846 24.98 12.5 54.4 95 11.8 53.2
04:30 1017 30.03 846 24.98 12.5 54.4 94 11.6 52.9
04:35 1016 30 846 24.98 12.4 54.4 95 11.6 52.9
04:40 1016 30 846 24.98 12.7 54.9 96 12.1 53.7
04:45 1016 30 846 24.98 12.3 54.1 94 11.4 52.5
04:50 1016 30 846 24.98 12.1 53.8 96 11.5 52.6
04:55 1016 30 845 24.95 12.4 54.3 96 11.7 53.1
05:00 1016 30 845 24.95 12.5 54.5 94 11.6 52.8
05:05 1016 30 845 24.95 12.4 54.3 94 11.5 52.7
05:10 1016 30 845 24.95 12.5 54.4 95 11.6 53
05:15 1016 30 845 24.95 12.4 54.4 94 11.5 52.7
05:20 1016 30 845 24.95 12.4 54.3 94 11.5 52.7
05:25 1016 30 845 24.95 12.5 54.4 94 11.5 52.8
05:30 1016 30 845 24.95 12.5 54.6 91 11.2 52.1
05:35 1016 30 845 24.95 12.2 53.9 94 11.2 52.2
05:40 1016 30 845 24.95 12.1 53.8 93 11 51.9
05:45 1016 30 845 24.95 12.3 54.1 94 11.4 52.5
05:50 1016 30 845 24.95 12.4 54.4 90 10.9 51.7
05:55 1016 30 845 24.95 12 53.5 92 10.8 51.4
06:00 1016 30 845 24.95 11.7 53.1 94 10.7 51.3
06:05 1016 30 845 24.95 11.5 52.6 95 10.7 51.3
06:10 1016 30 845 24.95 11.7 53.1 96 11 51.9
06:15 1016 30 845 24.95 12.5 54.5 90 10.9 51.6
06:20 1016 30 845 24.95 12.9 55.2 89 11.1 52
06:25 1016 30 845 24.95 12.8 55.1 90 11.3 52.3
06:30 1016 30 845 24.95 12.8 55.1 89 11.1 51.9
06:35 1016 30 845 24.95 12.9 55.3 88 11 51.8
06:40 1016 30 845 24.95 12.9 55.3 88 11 51.8
06:45 1016 30 845 24.95 12.8 55.1 88 11 51.8
06:50 1016 30 845 24.95 13.1 55.6 87 11 51.8
06:55 1016 30 845 24.95 13.3 55.9 88 11.3 52.3
07:00 1016 30 845 24.95 13.4 56.2 87 11.3 52.4
07:05 1016 30 845 24.95 13.4 56.2 87 11.4 52.5
07:10 1016 30 845 24.95 13.2 55.7 88 11.3 52.4
07:15 1016 30 845 24.95 13 55.5 90 11.4 52.5
07:20 1016 30 845 24.95 13 55.4 90 11.4 52.5
07:25 1016 30 845 24.95 13.1 55.5 89 11.4 52.5
07:30 1016 30 845 24.95 13.1 55.6 89 11.3 52.4
07:35 1016 30 845 24.95 13.5 56.4 88 11.5 52.8
07:40 1016 30 845 24.95 14.1 57.4 85 11.7 53.1
07:45 1016 30 845 24.95 14.5 58 84 11.8 53.2
07:50 1016 30 845 24.95 15 59 82 12.1 53.7
07:55 1016 30 845 24.95 15.2 59.4 82 12.3 54.1
08:00 1016 30 845 24.95 15.4 59.6 81 12.1 53.8
08:05 1016 30 845 24.95 15.4 59.6 81 12.1 53.8
08:10 1016 30 845 24.95 15.9 60.6 79 12.3 54.2
08:15 1016 30 845 24.95 16.6 62 77 12.7 54.8
08:20 1016 30 845 24.95 17.2 62.9 74 12.6 54.6
08:25 1016 30 845 24.95 17.7 63.9 73 12.9 55.3
08:30 1015 29.97 845 24.95 17.7 63.8 76 13.4 56.1
08:35 1015 29.97 845 24.95 16.6 61.8 79 12.9 55.2
08:40 1016 30 845 24.95 16.3 61.3 78 12.6 54.6
08:45 1016 30 845 24.95 16.3 61.4 79 12.7 54.9
08:50 1016 30 845 24.95 16.2 61.2 79 12.7 54.9
08:55 1016 30 845 24.95 16.7 62 76 12.5 54.5
09:00 1016 30 845 24.95 17.2 63 76 13 55.4
09:05 1016 30 845 24.95 17.4 63.3 75 12.9 55.2
09:10 1016 30 845 24.95 17.1 62.8 76 12.9 55.2
09:15 1016 30 845 24.95 17 62.6 76 12.7 54.9
09:20 1016 30 845 24.95 17 62.5 77 12.9 55.2
09:25 1016 30 845 24.95 16.7 62.1 79 13.1 55.5
09:30 1016 30 845 24.95 16.4 61.5 79 12.8 55.1
09:35 1016 30 845 24.95 16.6 61.8 79 12.9 55.2
09:40 1016 30 845 24.95 17 62.6 78 13.2 55.7
09:45 1016 30 845 24.95 17.4 63.4 77 13.3 56
09:50 1016 30 845 24.95 17.3 63.2 79 13.6 56.5
09:55 1016 30 845 24.95 16.9 62.4 80 13.4 56.2
10:00 1016 30 845 24.95 17 62.7 79 13.4 56.2
10:05 1016 30 845 24.95 17.2 63 78 13.5 56.2
10:10 1016 30 845 24.95 16.8 62.3 84 14.1 57.4
10:15 1016 30 845 24.95 16.6 62 85 14.2 57.5
10:20 1016 30 845 24.95 16.2 61.1 87 14 57.3
10:25 1015 29.97 845 24.95 15.9 60.6 89 14 57.3
10:30 1015 29.97 844 24.92 15.6 60.2 89 13.8 56.8
10:35 1015 29.97 844 24.92 15.6 60.1 88 13.7 56.6
10:40 1015 29.97 844 24.92 15.8 60.4 88 13.9 57
10:45 1015 29.97 844 24.92 15.9 60.6 88 13.9 56.9
10:50 1015 29.97 844 24.92 16 60.7 89 14.1 57.4
10:55 1015 29.97 844 24.92 15.9 60.7 89 14.1 57.4
11:00 1015 29.97 844 24.92 16.1 60.9 83 13.2 55.7
11:05 1015 29.97 844 24.92 16.5 61.8 84 13.9 57
11:10 1015 29.97 844 24.92 17.1 62.7 79 13.3 56
11:15 1015 29.97 844 24.92 17.4 63.4 73 12.7 54.8
11:20 1015 29.97 844 24.92 17.7 63.9 73 12.8 55.1
11:25 1015 29.97 844 24.92 17.9 64.1 79 14.2 57.5
11:30 1015 29.97 844 24.92 18 64.5 74 13.3 55.9
11:35 1015 29.97 844 24.92 18.6 65.4 73 13.6 56.5
11:40 1015 29.97 844 24.92 18.6 65.6 73 13.7 56.7
11:45 1015 29.97 844 24.92 18.9 65.9 69 13.1 55.6
11:50 1015 29.97 844 24.92 19.1 66.4 70 13.5 56.4
11:55 1015 29.97 844 24.92 20 68.1 66 13.7 56.7
12:00 1015 29.97 844 24.92 19.3 66.8 69 13.6 56.5
12:05 1015 29.97 844 24.92 18.9 66.1 68 13 55.3
12:10 1015 29.97 844 24.92 18.7 65.7 71 13.5 56.3
12:15 1015 29.97 844 24.92 18.6 65.5 69 12.9 55.3
12:20 1015 29.97 844 24.92 18.7 65.6 68 12.7 54.9
12:25 1015 29.97 844 24.92 19 66.3 66 12.7 54.8
12:30 1016 30 845 24.95 19.2 66.5 70 13.6 56.5
12:35 1016 30 845 24.95 18.8 65.8 75 14.4 57.9
12:40 1016 30 845 24.95 18.3 65 73 13.5 56.3
12:45 1016 30 845 24.95 17.8 64.1 69 12.2 54
12:50 1016 30 845 24.95 17.5 63.5 71 12.3 54.1
12:55 1016 30 845 24.95 17.2 63 71 12 53.6
13:00 1016 30 845 24.95 16.7 62.1 77 12.7 54.9
13:05 1016 30 846 24.98 15.4 59.6 82 12.3 54.2
13:10 1016 30 846 24.98 14.8 58.6 84 12.1 53.8
13:15 1016 30 845 24.95 15 58.9 82 11.9 53.4
13:20 1016 30 846 24.98 15.3 59.6 79 11.7 53.1
13:25 1016 30 846 24.98 15.7 60.3 75 11.3 52.3
13:30 1016 30 846 24.98 16 60.9 74 11.5 52.7
13:35 1017 30.03 846 24.98 16.2 61.2 71 11.1 52
13:40 1017 30.03 846 24.98 16.3 61.4 69 10.7 51.2
13:45 1017 30.03 846 24.98 16.7 62.1 73 11.9 53.5
13:50 1017 30.03 846 24.98 16.9 62.5 77 13 55.4
13:55 1017 30.03 846 24.98 17.2 63 68 11.2 52.2
14:00 1017 30.03 846 24.98 17.5 63.5 70 12.1 53.8
14:05 1017 30.03 846 24.98 18.3 64.9 70 12.8 55
14:10 1017 30.03 846 24.98 19.1 66.3 67 12.9 55.2
14:15 1017 30.03 846 24.98 19.6 67.3 70 14 57.2
14:20 1017 30.03 846 24.98 20.1 68.2 64 13.3 55.9
14:25 1017 30.03 846 24.98 20.5 69 64 13.7 56.6
14:30 1017 30.03 846 24.98 20.7 69.2 64 13.7 56.6
14:35 1017 30.03 846 24.98 20.2 68.3 65 13.6 56.5
14:40 1017 30.03 846 24.98 20.1 68.3 65 13.4 56.2
14:45 1017 30.03 846 24.98 19.8 67.6 66 13.3 55.9
14:50 1017 30.03 846 24.98 19.8 67.6 64 12.9 55.3
14:55 1017 30.03 846 24.98 19.7 67.4 64 12.7 54.9
15:00 1017 30.03 846 24.98 19.5 67 65 12.8 55
15:05 1017 30.03 846 24.98 19.9 67.8 63 12.8 55
15:10 1017 30.03 846 24.98 19.5 67.1 67 13.3 55.9
15:15 1017 30.03 846 24.98 19.3 66.8 66 13 55.4
15:20 1017 30.03 846 24.98 19.7 67.5 54 10.2 50.4
15:25 1017 30.03 846 24.98 20.9 69.6 53 11 51.8
15:30 1017 30.03 846 24.98 21.7 71.1 50 10.9 51.6
15:35 1017 30.03 846 24.98 22 71.7 49 11.1 52
15:40 1016 30 846 24.98 21.4 70.5 54 11.7 53.1
15:45 1016 30 846 24.98 21.5 70.6 45 9.3 48.8
15:50 1016 30 845 24.95 22.2 71.9 45 9.8 49.7
15:55 1016 30 845 24.95 22.4 72.3 48 11 51.8
16:00 1016 30 845 24.95 22.6 72.7 46 10.6 51.1
16:05 1016 30 845 24.95 22.8 73.1 45 10.6 51.1
16:10 1016 30 845 24.95 22.6 72.6 46 10.6 51.2
16:15 1016 30 846 24.98 22.5 72.6 46 10.6 51.1
16:20 1016 30 846 24.98 22.2 71.9 46 10.1 50.2
16:25 1016 30 846 24.98 21.9 71.4 51 11.6 52.8
16:30 1016 30 845 24.95 21.3 70.4 55 11.9 53.5
16:35 1016 30 845 24.95 20.5 68.9 54 11.1 52
16:40 1016 30 845 24.95 20.9 69.5 50 10.3 50.6
16:45 1016 30 845 24.95 21.6 70.9 48 10.3 50.5
16:50 1016 30 845 24.95 22.5 72.5 46 10.5 50.9
16:55 1016 30 845 24.95 21.7 71 50 11 51.9
17:00 1016 30 845 24.95 21.1 70 52 10.9 51.6
17:05 1016 30 845 24.95 20.5 69 54 11.1 52
17:10 1016 30 845 24.95 20.6 69.1 53 11 51.7
17:15 1016 30 846 24.98 20.3 68.6 50 9.6 49.4
17:20 1016 30 845 24.95 19.5 67.1 49 8.6 47.5
17:25 1016 30 845 24.95 19.1 66.3 49 8.3 46.9
17:30 1016 30 846 24.98 18.9 66 48 7.7 45.9
17:35 1016 30 846 24.98 19 66.2 46 7.4 45.3
17:40 1017 30.03 846 24.98 19.1 66.4 47 7.7 45.9
17:45 1017 30.03 846 24.98 19.1 66.4 51 8.8 47.9
17:50 1017 30.03 846 24.98 18.6 65.4 59 10.6 51.1
17:55 1017 30.03 847 25.01 16.7 62.1 69 11 51.8
18:00 1017 30.03 847 25.01 14.9 58.8 76 10.7 51.3
18:05 1018 30.06 847 25.01 14.2 57.5 79 10.6 51
18:10 1017 30.03 847 25.01 13.7 56.7 80 10.3 50.5
18:15 1018 30.06 847 25.01 13.4 56.1 82 10.4 50.7
18:20 1018 30.06 847 25.01 13.2 55.7 83 10.3 50.6
18:25 1018 30.06 847 25.01 13.1 55.6 84 10.6 51.1
18:30 1018 30.06 847 25.01 13 55.3 85 10.6 51
18:35 1018 30.06 847 25.01 13 55.5 84 10.4 50.6
18:40 1018 30.06 847 25.01 13.1 55.6 84 10.6 51
18:45 1018 30.06 847 25.01 13.1 55.5 83 10.3 50.6
18:50 1018 30.06 847 25.01 13.2 55.8 82 10.2 50.4
18:55 1018 30.06 847 25.01 13.5 56.3 80 10.1 50.2
19:00 1018 30.06 847 25.01 13.6 56.4 80 10.2 50.4
19:05 1018 30.06 847 25.01 13.7 56.7 74 9.2 48.6
19:10 1018 30.06 847 25.01 14 57.2 77 10 50
19:15 1018 30.06 847 25.01 13.9 57.1 76 9.7 49.5
19:20 1017 30.03 847 25.01 14 57.1 75 9.7 49.4
19:25 1017 30.03 847 25.01 13.9 57 74 9.5 49
19:30 1017 30.03 847 25.01 13.8 56.9 75 9.6 49.2
19:35 1017 30.03 846 24.98 13.8 56.8 76 9.6 49.2
19:40 1017 30.03 846 24.98 13.9 56.9 75 9.6 49.2
19:45 1017 30.03 846 24.98 13.9 57 74 9.4 48.9
19:50 1017 30.03 846 24.98 14 57.2 74 9.6 49.3
19:55 1017 30.03 846 24.98 14.2 57.5 73 9.5 49
20:00 1017 30.03 846 24.98 14.4 57.9 70 9 48.1
20:05 1017 30.03 846 24.98 14.7 58.4 67 8.7 47.7
20:10 1017 30.03 846 24.98 14.6 58.2 70 9.1 48.5
20:15 1017 30.03 846 24.98 14.6 58.3 68 8.8 47.8
20:20 1017 30.03 846 24.98 14.7 58.5 63 7.9 46.2
20:25 1017 30.03 846 24.98 15 58.9 64 8.3 46.9
20:30 1017 30.03 846 24.98 15 58.9 65 8.4 47.2
20:35 1017 30.03 846 24.98 14.8 58.6 67 8.9 48
20:40 1017 30.03 846 24.98 14.6 58.4 65 8.3 46.9
20:45 1017 30.03 846 24.98 14.8 58.6 66 8.6 47.5
20:50 1017 30.03 846 24.98 14.6 58.3 67 8.7 47.7
20:55 1017 30.03 846 24.98 14.5 58.1 67 8.6 47.5
21:00 1017 30.03 846 24.98 14.5 58 70 9.2 48.5
21:05 1017 30.03 846 24.98 14.2 57.6 72 9.3 48.7
21:10 1017 30.03 846 24.98 14.1 57.3 72 9.1 48.4
21:15 1017 30.03 846 24.98 14.1 57.4 71 9 48.2
21:20 1017 30.03 847 25.01 14.1 57.4 72 9.3 48.7
21:25 1017 30.03 847 25.01 14 57.1 74 9.5 49.1
21:30 1017 30.03 847 25.01 13.9 57 74 9.4 48.9
21:35 1018 30.06 847 25.01 13.8 56.9 75 9.4 48.9
21:40 1018 30.06 847 25.01 13.8 56.9 75 9.4 48.9
21:45 1018 30.06 847 25.01 13.7 56.7 76 9.5 49.2
21:50 1018 30.06 847 25.01 13.6 56.6 76 9.5 49.1
21:55 1018 30.06 847 25.01 13.5 56.4 76 9.4 48.8
22:00 1018 30.06 847 25.01 13.6 56.4 75 9.2 48.5
22:05 1018 30.06 847 25.01 13.6 56.4 75 9.3 48.7
22:10 1018 30.06 847 25.01 13.6 56.4 75 9.3 48.8
22:15 1018 30.06 847 25.01 13.4 56.2 76 9.3 48.7
22:20 1018 30.06 847 25.01 13.4 56 77 9.3 48.8
22:25 1018 30.06 847 25.01 13.2 55.7 78 9.4 48.9
22:30 1018 30.06 847 25.01 13 55.4 79 9.5 49.1
22:35 1018 30.06 847 25.01 12.8 55.1 79 9.3 48.8
22:40 1018 30.06 847 25.01 12.7 54.8 80 9.4 48.9
22:45 1018 30.06 847 25.01 12.5 54.6 80 9.1 48.4
22:50 1018 30.06 847 25.01 12.7 54.8 77 8.7 47.7
22:55 1018 30.06 847 25.01 13 55.5 76 9 48.2
23:00 1018 30.06 847 25.01 13 55.4 78 9.3 48.7
23:05 1018 30.06 847 25.01 13 55.5 78 9.2 48.6
23:10 1018 30.06 847 25.01 12.9 55.1 77 9 48.3
23:15 1018 30.06 847 25.01 13 55.4 77 9 48.2
23:20 1018 30.06 847 25.01 13.2 55.8 74 8.7 47.6
23:25 1018 30.06 847 25.01 13.5 56.2 73 8.8 47.9
23:30 1018 30.06 847 25.01 13.1 55.6 77 9.2 48.6
23:35 1018 30.06 847 25.01 12.4 54.4 82 9.5 49.1
23:40 1018 30.06 847 25.01 11.8 53.2 84 9.2 48.6
23:45 1018 30.06 847 25.01 11.5 52.7 85 9.1 48.4
23:50 1018 30.06 847 25.01 11.4 52.5 86 9.2 48.5
23:55 1018 30.06 847 25.01 11.6 52.9 83 8.8 47.8
24:00 1018 30.06 847 25.01 11.6 52.9 82 8.6 47.5